Time;durP1;ratioP1;P1;durP2;ratioP2;P2;SDS_P1;SDS_P2;PMS_P1;PMS_P2;Temp;Humidity;BMP_temperature;BMP_pressure;BME280_temperature;BME280_humidity;BME280_pressure;Samples;Min_cycle;Max_cycle;Signal;HPM_P1;HPM_P2
2021/11/21 00:01:21;;;;;;;;;;;10.30;99.90;;;;;;5053526;28;19925;-85
2021/11/21 00:03:48;;;;;;;;;;;10.30;99.90;;;;;;5051001;28;19928;-85
2021/11/21 00:06:16;;;;;;;;;;;10.20;99.90;;;;;;5053326;28;19932;-84
2021/11/21 00:08:43;;;;;;;;;;;10.30;99.90;;;;;;5045693;28;20257;-84
2021/11/21 00:11:09;;;;;;;;;;;10.20;99.90;;;;;;5040857;28;19984;-84
2021/11/21 00:13:37;;;;;;;;;;;10.20;99.90;;;;;;5041572;28;19953;-84
2021/11/21 00:16:06;;;;;;;;;;;9.40;99.90;;;;;;5046011;28;19932;-85
2021/11/21 00:18:33;;;;;;;;;;;10.20;99.90;;;;;;5040216;28;20392;-85
2021/11/21 00:21:00;;;;;;;;;;;10.20;99.90;;;;;;5041388;28;19933;-85
2021/11/21 00:23:26;;;;;;;;;;;10.20;99.90;;;;;;5041040;28;20446;-85
2021/11/21 00:25:53;;;;;;;;;;;10.20;99.90;;;;;;5041000;28;20020;-85
2021/11/21 00:28:20;;;;;;;;;;;10.20;99.90;;;;;;5041300;28;19925;-85
2021/11/21 00:30:48;;;;;;;;;;;10.20;99.90;;;;;;5040859;28;19959;-83
2021/11/21 00:33:15;;;;;;;;;;;10.20;99.90;;;;;;5041853;28;19925;-86
2021/11/21 00:35:41;;;;;;;;;;;10.10;99.90;;;;;;5040153;28;19947;-85
2021/11/21 00:38:08;;;;;;;;;;;10.10;99.90;;;;;;5041261;28;19947;-86
2021/11/21 00:40:35;;;;;;;;;;;10.10;99.90;;;;;;5040288;28;20012;-86
2021/11/21 00:43:02;;;;;;;;;;;10.10;99.90;;;;;;5040254;28;19925;-84
2021/11/21 00:45:29;;;;;;;;;;;10.10;99.90;;;;;;5039586;28;20307;-85
2021/11/21 00:47:58;;;;;;;;;;;10.10;99.90;;;;;;5039185;28;20015;-85
2021/11/21 00:50:26;;;;;;;;;;;10.10;99.90;;;;;;5039651;28;19925;-85
2021/11/21 00:52:58;;;;;;;;;;;10.10;99.90;;;;;;5047851;28;19925;-84
2021/11/21 00:55:33;;;;;;;;;;;10.10;99.90;;;;;;5041103;28;20372;-85
2021/11/21 00:58:00;;;;;;;;;;;10.10;99.90;;;;;;5039215;28;19979;-85
2021/11/21 01:00:27;;;;;;;;;;;10.10;99.90;;;;;;5042722;28;20447;-84
2021/11/21 01:02:53;;;;;;;;;;;10.10;99.90;;;;;;5039136;28;20011;-84
2021/11/21 01:05:21;;;;;;;;;;;10.00;99.90;;;;;;5038209;28;19946;-85
2021/11/21 01:07:48;;;;;;;;;;;10.00;99.90;;;;;;5039882;28;19976;-84
2021/11/21 01:10:18;;;;;;;;;;;10.00;99.90;;;;;;5040403;28;19925;-84
2021/11/21 01:12:45;;;;;;;;;;;10.00;99.90;;;;;;5041378;28;19925;-84
2021/11/21 01:18:07;;;;;;;;;;;10.10;99.90;;;;;;5462515;23;19936;-80
2021/11/21 01:20:40;;;;;;;;;;;10.10;99.90;;;;;;5044901;28;19929;-82
2021/11/21 01:23:07;;;;;;;;;;;10.00;99.90;;;;;;5043871;28;19925;-82
2021/11/21 01:25:33;;;;;;;;;;;10.00;99.90;;;;;;5042265;28;20287;-82
2021/11/21 01:28:00;;;;;;;;;;;10.00;99.90;;;;;;5042700;28;19925;-82
2021/11/21 01:30:29;;;;;;;;;;;10.00;99.90;;;;;;5060995;22;19932;-84
2021/11/21 01:32:56;;;;;;;;;;;10.00;99.90;;;;;;5038926;28;19931;-85
2021/11/21 01:35:23;;;;;;;;;;;10.10;99.90;;;;;;5038444;28;20007;-84
2021/11/21 01:37:51;;;;;;;;;;;10.00;99.90;;;;;;5038871;28;19992;-85
2021/11/21 01:40:19;;;;;;;;;;;10.00;99.90;;;;;;5038709;28;20339;-85
2021/11/21 01:42:47;;;;;;;;;;;10.00;99.90;;;;;;5037969;28;20327;-85
2021/11/21 01:45:14;;;;;;;;;;;9.90;99.90;;;;;;5038744;28;19956;-85
2021/11/21 01:47:42;;;;;;;;;;;10.00;99.90;;;;;;5038028;28;19980;-85
2021/11/21 01:50:10;;;;;;;;;;;10.00;99.90;;;;;;5037892;28;20446;-85
2021/11/21 01:52:37;;;;;;;;;;;9.90;99.90;;;;;;5037939;28;20279;-85
2021/11/21 01:55:05;;;;;;;;;;;10.00;99.90;;;;;;5041073;28;20088;-86
2021/11/21 01:57:32;;;;;;;;;;;10.00;99.90;;;;;;5039397;28;20411;-85
2021/11/21 02:00:01;;;;;;;;;;;10.00;99.90;;;;;;5037581;28;19925;-85
2021/11/21 02:02:28;;;;;;;;;;;10.00;99.90;;;;;;5037767;28;19967;-85
2021/11/21 02:04:54;;;;;;;;;;;9.90;99.90;;;;;;5038471;28;19948;-85
2021/11/21 02:07:21;;;;;;;;;;;9.90;99.90;;;;;;5037815;28;19967;-85
2021/11/21 02:09:48;;;;;;;;;;;9.90;99.90;;;;;;5041739;28;19964;-85
2021/11/21 02:12:16;;;;;;;;;;;9.90;99.90;;;;;;5040415;28;19931;-85
2021/11/21 02:14:43;;;;;;;;;;;9.90;99.90;;;;;;5037397;28;19925;-85
2021/11/21 02:17:09;;;;;;;;;;;9.90;99.90;;;;;;5038436;28;19925;-85
2021/11/21 02:19:36;;;;;;;;;;;9.90;99.90;;;;;;5041013;28;19932;-85
2021/11/21 02:22:04;;;;;;;;;;;9.90;99.90;;;;;;5037904;28;19975;-85
2021/11/21 02:24:31;;;;;;;;;;;9.80;99.90;;;;;;5037805;28;19947;-85
2021/11/21 02:26:57;;;;;;;;;;;9.80;99.90;;;;;;5037097;28;19929;-86
2021/11/21 02:29:25;;;;;;;;;;;9.80;99.90;;;;;;5037285;28;20426;-85
2021/11/21 02:31:52;;;;;;;;;;;9.80;99.90;;;;;;5036865;28;19929;-86
2021/11/21 02:34:19;;;;;;;;;;;9.80;99.90;;;;;;5037078;28;19925;-85
2021/11/21 02:36:46;;;;;;;;;;;9.80;99.90;;;;;;5037779;28;20023;-85
2021/11/21 02:39:14;;;;;;;;;;;9.80;99.90;;;;;;5036689;28;19925;-85
2021/11/21 02:41:41;;;;;;;;;;;9.80;99.90;;;;;;5040001;28;19967;-84
2021/11/21 02:44:08;;;;;;;;;;;9.80;99.90;;;;;;5036760;28;19964;-84
2021/11/21 02:46:36;;;;;;;;;;;10.00;99.90;;;;;;5046039;28;20303;-84
2021/11/21 02:49:03;;;;;;;;;;;9.70;99.90;;;;;;5037126;28;19925;-84
2021/11/21 02:51:29;;;;;;;;;;;9.70;99.90;;;;;;5036868;28;20016;-84
2021/11/21 02:53:59;;;;;;;;;;;9.70;99.90;;;;;;5037572;28;20016;-84
2021/11/21 02:56:27;;;;;;;;;;;9.70;99.90;;;;;;5040742;28;19932;-84
2021/11/21 02:58:54;;;;;;;;;;;9.80;99.90;;;;;;5045670;28;19925;-83
2021/11/21 03:01:22;;;;;;;;;;;9.80;99.90;;;;;;5058283;28;19909;-82
2021/11/21 03:04:00;;;;;;;;;;;9.80;99.90;;;;;;5048539;28;19980;-84
2021/11/21 03:06:28;;;;;;;;;;;9.80;99.90;;;;;;5044109;28;19948;-83
2021/11/21 03:08:55;;;;;;;;;;;9.80;99.90;;;;;;5042816;28;19925;-84
2021/11/21 03:11:26;;;;;;;;;;;9.80;99.90;;;;;;5041766;28;19983;-83
2021/11/21 03:13:54;;;;;;;;;;;9.80;99.90;;;;;;5040519;28;19932;-84
2021/11/21 03:16:21;;;;;;;;;;;9.80;99.90;;;;;;5052431;28;19961;-85
2021/11/21 03:18:47;;;;;;;;;;;9.70;99.90;;;;;;5057799;28;19913;-83
2021/11/21 03:21:14;;;;;;;;;;;9.70;99.90;;;;;;5058878;28;19964;-83
2021/11/21 03:23:41;;;;;;;;;;;9.70;99.90;;;;;;5059255;28;19924;-82
2021/11/21 03:26:08;;;;;;;;;;;9.70;99.90;;;;;;5059224;28;19944;-83
2021/11/21 03:28:42;;;;;;;;;;;9.70;99.90;;;;;;5058948;28;19920;-83
2021/11/21 03:31:10;;;;;;;;;;;9.70;99.90;;;;;;5058462;28;19940;-83
2021/11/21 03:33:38;;;;;;;;;;;9.70;99.90;;;;;;5048754;28;19965;-84
2021/11/21 03:36:05;;;;;;;;;;;9.70;99.90;;;;;;5045440;28;19948;-85
2021/11/21 03:38:32;;;;;;;;;;;9.70;99.90;;;;;;5056433;28;19972;-83
2021/11/21 03:40:58;;;;;;;;;;;9.70;99.90;;;;;;5057986;28;19913;-83
2021/11/21 03:43:25;;;;;;;;;;;10.10;99.90;;;;;;5057388;28;19964;-84
2021/11/21 03:45:52;;;;;;;;;;;9.70;99.90;;;;;;5056789;28;19969;-84
2021/11/21 03:48:20;;;;;;;;;;;9.60;99.90;;;;;;5052425;28;20316;-84
2021/11/21 03:50:46;;;;;;;;;;;9.60;99.90;;;;;;5051026;28;19963;-84
2021/11/21 03:53:13;;;;;;;;;;;9.60;99.90;;;;;;5051873;28;19965;-84
2021/11/21 03:55:40;;;;;;;;;;;9.60;99.90;;;;;;5052261;28;19925;-84
2021/11/21 03:58:07;;;;;;;;;;;9.60;99.90;;;;;;5053398;28;20016;-84
2021/11/21 04:00:33;;;;;;;;;;;9.70;99.90;;;;;;5045980;28;19984;-84
2021/11/21 04:03:00;;;;;;;;;;;9.70;99.90;;;;;;5040307;28;20419;-84
2021/11/21 04:05:28;;;;;;;;;;;9.70;99.90;;;;;;5039765;28;19995;-84
2021/11/21 04:07:55;;;;;;;;;;;9.60;99.90;;;;;;5039751;28;20024;-84
2021/11/21 04:10:22;;;;;;;;;;;9.60;99.90;;;;;;5039150;28;20024;-84
2021/11/21 04:12:49;;;;;;;;;;;9.50;99.90;;;;;;5039942;28;20365;-84
2021/11/21 04:15:15;;;;;;;;;;;9.50;99.90;;;;;;5041534;28;19932;-84
2021/11/21 04:17:43;;;;;;;;;;;9.50;99.90;;;;;;5045568;28;19993;-84
2021/11/21 04:20:10;;;;;;;;;;;9.50;99.90;;;;;;5044083;28;19983;-84
2021/11/21 04:22:38;;;;;;;;;;;9.50;99.90;;;;;;5039431;28;19975;-85
2021/11/21 04:25:05;;;;;;;;;;;9.50;99.90;;;;;;5040146;28;19925;-85
2021/11/21 04:27:33;;;;;;;;;;;9.60;99.90;;;;;;5039572;28;20029;-85
2021/11/21 04:29:59;;;;;;;;;;;9.60;99.90;;;;;;5039095;28;19996;-84
2021/11/21 04:32:26;;;;;;;;;;;9.50;99.90;;;;;;5044668;28;19979;-84
2021/11/21 04:34:53;;;;;;;;;;;9.50;99.90;;;;;;5043898;28;19929;-84
2021/11/21 04:37:20;;;;;;;;;;;9.50;99.90;;;;;;5039259;28;20020;-84
2021/11/21 04:39:48;;;;;;;;;;;9.40;99.90;;;;;;5039528;28;19983;-84
2021/11/21 04:42:15;;;;;;;;;;;9.50;99.90;;;;;;5039596;28;20306;-84
2021/11/21 04:44:43;;;;;;;;;;;9.50;99.90;;;;;;5046238;28;19996;-83
2021/11/21 04:47:09;;;;;;;;;;;9.50;99.90;;;;;;5060198;28;19925;-83
2021/11/21 04:49:36;;;;;;;;;;;9.40;99.90;;;;;;5060155;28;19929;-83
2021/11/21 04:52:03;;;;;;;;;;;9.50;99.90;;;;;;5054642;28;20011;-84
2021/11/21 04:54:30;;;;;;;;;;;9.50;99.90;;;;;;5040992;28;19931;-84
2021/11/21 04:56:58;;;;;;;;;;;9.50;99.90;;;;;;5042020;28;19971;-84
2021/11/21 04:59:25;;;;;;;;;;;9.50;99.90;;;;;;5040742;28;19931;-83
2021/11/21 05:01:51;;;;;;;;;;;9.50;99.90;;;;;;5041064;28;20529;-83
2021/11/21 05:04:18;;;;;;;;;;;9.40;99.90;;;;;;5049106;28;19931;-83
2021/11/21 05:06:45;;;;;;;;;;;9.40;99.90;;;;;;5042107;28;19925;-83
2021/11/21 05:09:11;;;;;;;;;;;9.40;99.90;;;;;;5042197;28;19976;-83
2021/11/21 05:11:38;;;;;;;;;;;9.40;99.90;;;;;;5043647;28;19957;-84
2021/11/21 05:14:06;;;;;;;;;;;9.40;99.90;;;;;;5040042;28;19932;-84
2021/11/21 05:16:33;;;;;;;;;;;9.40;99.90;;;;;;5042344;28;19971;-84
2021/11/21 05:19:00;;;;;;;;;;;9.40;99.90;;;;;;5039949;28;19925;-83
2021/11/21 05:21:27;;;;;;;;;;;9.40;99.90;;;;;;5039343;28;19980;-84
2021/11/21 05:23:53;;;;;;;;;;;9.40;99.90;;;;;;5038647;28;19981;-84
2021/11/21 05:26:22;;;;;;;;;;;9.30;99.90;;;;;;5039110;28;20016;-84
2021/11/21 05:28:48;;;;;;;;;;;9.30;99.90;;;;;;5038408;28;19932;-84
2021/11/21 05:31:16;;;;;;;;;;;9.40;99.90;;;;;;5039508;28;19984;-84
2021/11/21 05:33:43;;;;;;;;;;;9.40;99.90;;;;;;5039784;28;20340;-84
2021/11/21 05:36:10;;;;;;;;;;;9.40;99.90;;;;;;5040605;28;20007;-84
2021/11/21 05:38:36;;;;;;;;;;;9.40;99.90;;;;;;5040469;28;19929;-84
2021/11/21 05:41:03;;;;;;;;;;;9.40;99.90;;;;;;5041111;28;20363;-84
2021/11/21 05:43:30;;;;;;;;;;;9.40;99.90;;;;;;5039938;28;19925;-84
2021/11/21 05:45:57;;;;;;;;;;;9.40;99.90;;;;;;5039940;28;19932;-84
2021/11/21 05:48:25;;;;;;;;;;;9.30;99.90;;;;;;5039412;28;20020;-84
2021/11/21 05:50:52;;;;;;;;;;;9.40;99.90;;;;;;5038706;28;19929;-84
2021/11/21 05:53:18;;;;;;;;;;;9.40;99.90;;;;;;5054993;28;19909;-85
2021/11/21 05:55:45;;;;;;;;;;;9.30;99.90;;;;;;5060230;28;19925;-83
2021/11/21 05:58:12;;;;;;;;;;;9.30;99.90;;;;;;5049998;28;20414;-83
2021/11/21 06:00:39;;;;;;;;;;;9.30;99.90;;;;;;5046993;28;19925;-84
2021/11/21 06:03:14;;;;;;;;;;;9.30;99.90;;;;;;5046063;28;19925;-84
2021/11/21 06:08:26;;;;;;;;;;;9.20;99.90;;;;;;5044434;28;19980;-84
2021/11/21 06:10:52;;;;;;;;;;;9.30;99.90;;;;;;5056443;28;19979;-83
2021/11/21 06:13:21;;;;;;;;;;;9.20;99.90;;;;;;5045979;28;20032;-84
2021/11/21 06:15:49;;;;;;;;;;;9.20;99.90;;;;;;5039507;28;20386;-84
2021/11/21 06:18:16;;;;;;;;;;;9.20;99.90;;;;;;5038316;28;19981;-84
2021/11/21 06:20:44;;;;;;;;;;;9.20;99.90;;;;;;5037778;28;20356;-84
2021/11/21 06:23:11;;;;;;;;;;;9.20;99.90;;;;;;5037130;28;19925;-84
2021/11/21 06:25:38;;;;;;;;;;;9.10;99.90;;;;;;5036517;28;19950;-84
2021/11/21 06:28:05;;;;;;;;;;;9.20;99.90;;;;;;5037084;28;19972;-84
2021/11/21 06:30:32;;;;;;;;;;;9.20;99.90;;;;;;5036757;28;20007;-84
2021/11/21 06:32:59;;;;;;;;;;;9.30;99.90;;;;;;5037242;28;19960;-84
2021/11/21 06:35:26;;;;;;;;;;;9.20;99.90;;;;;;5037633;28;19979;-84
2021/11/21 06:37:54;;;;;;;;;;;9.30;99.90;;;;;;5039569;28;19983;-84
2021/11/21 06:40:20;;;;;;;;;;;9.30;99.90;;;;;;5038268;28;20011;-84
2021/11/21 06:42:47;;;;;;;;;;;9.30;99.90;;;;;;5037329;28;20466;-83
2021/11/21 06:45:14;;;;;;;;;;;9.20;99.90;;;;;;5037096;28;19933;-83
2021/11/21 06:47:41;;;;;;;;;;;9.20;99.90;;;;;;5037086;28;19986;-83
2021/11/21 06:50:10;;;;;;;;;;;9.30;99.90;;;;;;5036406;28;20406;-83
2021/11/21 06:52:37;;;;;;;;;;;9.20;99.90;;;;;;5037540;28;19932;-83
2021/11/21 06:55:07;;;;;;;;;;;9.20;99.90;;;;;;5037557;28;19925;-84
2021/11/21 06:57:34;;;;;;;;;;;9.20;99.90;;;;;;5044120;28;19953;-84
2021/11/21 07:00:00;;;;;;;;;;;9.20;99.90;;;;;;5047294;28;19947;-83
2021/11/21 07:02:27;;;;;;;;;;;9.30;99.90;;;;;;5038017;28;19925;-83
2021/11/21 07:04:54;;;;;;;;;;;9.30;99.90;;;;;;5036417;28;19932;-83
2021/11/21 07:07:20;;;;;;;;;;;9.30;99.90;;;;;;5037480;28;19925;-83
2021/11/21 07:09:48;;;;;;;;;;;9.30;99.90;;;;;;5038426;28;20294;-84
2021/11/21 07:12:16;;;;;;;;;;;9.30;99.90;;;;;;5036988;28;19951;-84
2021/11/21 07:14:43;;;;;;;;;;;9.30;99.90;;;;;;5037661;28;20402;-83
2021/11/21 07:17:10;;;;;;;;;;;9.30;99.90;;;;;;5038469;28;19932;-84
2021/11/21 07:19:36;;;;;;;;;;;9.20;99.90;;;;;;5037831;28;20012;-84
2021/11/21 07:22:03;;;;;;;;;;;9.20;99.90;;;;;;5039194;28;19932;-85
2021/11/21 07:24:31;;;;;;;;;;;9.10;99.90;;;;;;5037551;28;19925;-84
2021/11/21 07:26:59;;;;;;;;;;;9.10;99.90;;;;;;5038475;28;19925;-83
2021/11/21 07:29:29;;;;;;;;;;;9.10;99.90;;;;;;5063114;23;19933;-83
2021/11/21 07:31:56;;;;;;;;;;;9.10;99.90;;;;;;5048245;28;19925;-79
2021/11/21 07:34:23;;;;;;;;;;;9.10;99.90;;;;;;5045744;28;19988;-81
2021/11/21 07:36:49;;;;;;;;;;;8.90;99.90;;;;;;5053342;28;19925;-82
2021/11/21 07:39:16;;;;;;;;;;;8.90;99.90;;;;;;5061622;28;19936;-82
2021/11/21 07:41:43;;;;;;;;;;;9.00;99.90;;;;;;5057496;28;19972;-80
2021/11/21 07:44:09;;;;;;;;;;;8.90;99.90;;;;;;5050751;28;19957;-82
2021/11/21 07:46:38;;;;;;;;;;;8.90;99.90;;;;;;5062274;28;19925;-82
2021/11/21 07:49:05;;;;;;;;;;;8.90;99.90;;;;;;5059479;28;19913;-79
2021/11/21 07:51:32;;;;;;;;;;;9.00;99.90;;;;;;5041091;28;19931;-81
2021/11/21 07:53:59;;;;;;;;;;;9.00;99.90;;;;;;5041337;28;20011;-82
2021/11/21 07:56:25;;;;;;;;;;;9.00;99.90;;;;;;5044152;28;19951;-82
2021/11/21 07:58:52;;;;;;;;;;;8.90;99.90;;;;;;5042736;28;19925;-83
2021/11/21 08:01:19;;;;;;;;;;;9.10;99.90;;;;;;5042716;28;20391;-82
2021/11/21 08:03:47;;;;;;;;;;;9.00;99.90;;;;;;5042428;28;19943;-82
2021/11/21 08:06:14;;;;;;;;;;;8.90;99.90;;;;;;5043358;28;20248;-82
2021/11/21 08:08:40;;;;;;;;;;;8.80;99.90;;;;;;5043101;28;20358;-82
2021/11/21 08:11:07;;;;;;;;;;;8.80;99.90;;;;;;5045028;28;19975;-82
2021/11/21 08:13:38;;;;;;;;;;;8.80;99.90;;;;;;5056358;28;19933;-80
2021/11/21 08:16:06;;;;;;;;;;;8.80;99.90;;;;;;5050761;28;19925;-83
2021/11/21 08:18:32;;;;;;;;;;;8.80;99.90;;;;;;5059143;28;19925;-82
2021/11/21 08:21:00;;;;;;;;;;;8.80;99.90;;;;;;5058808;28;19964;-82
2021/11/21 08:23:27;;;;;;;;;;;8.70;99.90;;;;;;5049696;28;19925;-83
2021/11/21 08:25:55;;;;;;;;;;;8.70;99.90;;;;;;5047372;28;19932;-82
2021/11/21 08:28:22;;;;;;;;;;;8.70;99.90;;;;;;5042494;28;19925;-83
2021/11/21 08:30:49;;;;;;;;;;;8.60;99.90;;;;;;5042283;28;19964;-81
2021/11/21 08:33:15;;;;;;;;;;;8.60;99.90;;;;;;5042871;28;20002;-82
2021/11/21 08:35:42;;;;;;;;;;;8.60;99.90;;;;;;5042690;28;19925;-82
2021/11/21 08:38:10;;;;;;;;;;;8.50;99.90;;;;;;5042392;28;19925;-82
2021/11/21 08:40:37;;;;;;;;;;;8.60;99.90;;;;;;5042465;28;19959;-83
2021/11/21 08:43:03;;;;;;;;;;;8.60;99.90;;;;;;5043085;28;19975;-83
2021/11/21 08:45:32;;;;;;;;;;;8.50;99.90;;;;;;5043493;28;20020;-82
2021/11/21 08:47:59;;;;;;;;;;;8.20;99.90;;;;;;5042786;28;19925;-82
2021/11/21 08:50:26;;;;;;;;;;;8.60;99.90;;;;;;5042603;28;19928;-82
2021/11/21 08:52:52;;;;;;;;;;;8.70;99.90;;;;;;5042674;28;19926;-82
2021/11/21 08:55:21;;;;;;;;;;;8.70;99.90;;;;;;5042552;28;20043;-82
2021/11/21 08:57:47;;;;;;;;;;;8.60;99.90;;;;;;5043607;28;19960;-80
2021/11/21 09:00:15;;;;;;;;;;;8.60;99.90;;;;;;5043864;28;19964;-83
2021/11/21 09:02:42;;;;;;;;;;;8.60;99.90;;;;;;5041936;28;19932;-82
2021/11/21 09:05:09;;;;;;;;;;;8.50;99.90;;;;;;5046840;28;19925;-80
2021/11/21 09:07:37;;;;;;;;;;;8.50;99.90;;;;;;5056133;28;19913;-80
2021/11/21 09:10:04;;;;;;;;;;;8.50;99.90;;;;;;5055941;28;19961;-81
2021/11/21 09:12:32;;;;;;;;;;;8.50;99.90;;;;;;5052159;28;19925;-82
2021/11/21 09:14:59;;;;;;;;;;;8.50;99.90;;;;;;5050885;28;19947;-83
2021/11/21 09:17:26;;;;;;;;;;;8.50;99.90;;;;;;5042464;28;19963;-81
2021/11/21 09:19:53;;;;;;;;;;;8.60;99.90;;;;;;5042237;28;19979;-82
2021/11/21 09:22:19;;;;;;;;;;;8.60;99.90;;;;;;5044129;28;19986;-82
2021/11/21 09:24:46;;;;;;;;;;;8.60;99.90;;;;;;5043695;28;19979;-82
2021/11/21 09:27:14;;;;;;;;;;;8.60;99.90;;;;;;5045954;28;20367;-83
2021/11/21 09:29:42;;;;;;;;;;;8.50;99.90;;;;;;5043010;28;19926;-83
2021/11/21 09:32:09;;;;;;;;;;;8.50;99.90;;;;;;5043565;28;19971;-83
2021/11/21 09:34:36;;;;;;;;;;;8.60;99.90;;;;;;5043133;28;19925;-81
2021/11/21 09:37:03;;;;;;;;;;;8.70;99.90;;;;;;5043024;28;19952;-82
2021/11/21 09:39:29;;;;;;;;;;;8.70;99.90;;;;;;5043489;28;20008;-82
2021/11/21 09:41:56;;;;;;;;;;;8.70;99.90;;;;;;5043116;28;19968;-83
2021/11/21 09:44:24;;;;;;;;;;;8.70;99.90;;;;;;5044209;28;19935;-82
2021/11/21 09:46:53;;;;;;;;;;;8.70;99.90;;;;;;5042389;28;19931;-83
2021/11/21 09:49:19;;;;;;;;;;;8.60;99.90;;;;;;5042616;28;20346;-83
2021/11/21 09:51:46;;;;;;;;;;;8.70;99.90;;;;;;5043776;28;19964;-82
2021/11/21 09:54:14;;;;;;;;;;;8.60;99.90;;;;;;5041475;28;19951;-83
2021/11/21 09:56:43;;;;;;;;;;;8.60;99.90;;;;;;5043606;28;19925;-83
2021/11/21 09:59:10;;;;;;;;;;;8.60;99.90;;;;;;5041565;28;19925;-81
2021/11/21 10:01:38;;;;;;;;;;;8.60;99.90;;;;;;5042466;28;19925;-83
2021/11/21 10:04:07;;;;;;;;;;;8.60;99.90;;;;;;5041848;28;19925;-82
2021/11/21 10:06:35;;;;;;;;;;;8.50;99.90;;;;;;5042013;28;19925;-82
2021/11/21 10:09:03;;;;;;;;;;;;;;;;;;5044324;28;19932;-82
2021/11/21 10:11:29;;;;;;;;;;;8.60;99.90;;;;;;5042942;28;19935;-82
2021/11/21 10:14:02;;;;;;;;;;;8.70;99.90;;;;;;5041363;28;19925;-81
2021/11/21 10:16:32;;;;;;;;;;;8.70;99.90;;;;;;5050978;28;19971;-81
2021/11/21 10:18:59;;;;;;;;;;;8.70;99.90;;;;;;5055949;28;19925;-83
2021/11/21 10:21:28;;;;;;;;;;;8.80;99.90;;;;;;5049739;28;19932;-82
2021/11/21 10:24:11;;;;;;;;;;;8.70;99.90;;;;;;5056042;28;19959;-83
2021/11/21 10:26:38;;;;;;;;;;;8.70;99.90;;;;;;5056362;28;19909;-81
2021/11/21 10:29:20;;;;;;;;;;;8.80;99.90;;;;;;5055647;28;19936;-81
2021/11/21 10:31:47;;;;;;;;;;;8.70;99.90;;;;;;5044288;28;20359;-82
2021/11/21 10:34:15;;;;;;;;;;;8.80;99.90;;;;;;5049003;28;19925;-83
2021/11/21 10:36:43;;;;;;;;;;;9.10;99.90;;;;;;5047155;28;20315;-82
2021/11/21 10:39:09;;;;;;;;;;;8.80;99.90;;;;;;5046311;28;20078;-83
2021/11/21 10:41:39;;;;;;;;;;;8.80;99.90;;;;;;5045894;28;20130;-83
2021/11/21 10:44:06;;;;;;;;;;;8.80;99.90;;;;;;5051949;28;19940;-81
2021/11/21 10:46:38;;;;;;;;;;;8.80;99.90;;;;;;5056132;28;19965;-82
2021/11/21 10:49:16;;;;;;;;;;;8.80;99.90;;;;;;5051068;28;20084;-81
2021/11/21 10:51:44;;;;;;;;;;;8.80;99.90;;;;;;5048195;28;19967;-81
2021/11/21 10:54:21;;;;;;;;;;;8.90;99.90;;;;;;5051796;28;20016;-83
2021/11/21 10:56:48;;;;;;;;;;;8.90;99.90;;;;;;5058862;28;19948;-82
2021/11/21 10:59:15;;;;;;;;;;;8.90;99.90;;;;;;5058229;28;19993;-80
2021/11/21 11:01:41;;;;;;;;;;;8.90;99.90;;;;;;5053349;28;19925;-81
2021/11/21 11:04:09;;;;;;;;;;;9.00;99.90;;;;;;5057327;28;19945;-81
2021/11/21 11:06:36;;;;;;;;;;;9.10;99.90;;;;;;5058091;28;19959;-83
2021/11/21 11:09:03;;;;;;;;;;;;;;;;;;5050577;28;19963;-83
2021/11/21 11:11:31;;;;;;;;;;;9.10;99.90;;;;;;5045058;28;19925;-83
2021/11/21 11:13:57;;;;;;;;;;;9.10;99.90;;;;;;5044194;28;19984;-79
2021/11/21 11:16:24;;;;;;;;;;;9.10;99.90;;;;;;5047605;28;19965;-81
2021/11/21 11:18:51;;;;;;;;;;;9.10;99.90;;;;;;5046942;28;20395;-81
2021/11/21 11:21:18;;;;;;;;;;;9.10;99.90;;;;;;5041659;28;19925;-82
2021/11/21 11:23:44;;;;;;;;;;;9.10;99.90;;;;;;5043082;28;20022;-81
2021/11/21 11:26:11;;;;;;;;;;;9.00;99.90;;;;;;5043732;28;19932;-84
2021/11/21 11:28:40;;;;;;;;;;;9.10;99.90;;;;;;5043898;28;19968;-83
2021/11/21 11:31:21;;;;;;;;;;;9.10;99.90;;;;;;5044105;28;19936;-82
2021/11/21 11:33:48;;;;;;;;;;;9.10;99.90;;;;;;5042808;28;19957;-84
2021/11/21 11:36:20;;;;;;;;;;;9.10;99.90;;;;;;5052943;28;19917;-80
2021/11/21 11:38:59;;;;;;;;;;;9.10;99.90;;;;;;5048880;28;20025;-83
2021/11/21 11:41:27;;;;;;;;;;;9.10;99.90;;;;;;5043413;28;19925;-83
2021/11/21 11:43:56;;;;;;;;;;;9.20;99.90;;;;;;5047417;28;19932;-82
2021/11/21 11:46:25;;;;;;;;;;;9.20;99.90;;;;;;5047272;28;19925;-82
2021/11/21 11:48:53;;;;;;;;;;;9.20;99.90;;;;;;5047039;28;19925;-82
2021/11/21 11:51:21;;;;;;;;;;;9.20;99.90;;;;;;5046372;28;19933;-82
2021/11/21 11:53:48;;;;;;;;;;;9.20;99.90;;;;;;5045560;28;19932;-83
2021/11/21 11:56:17;;;;;;;;;;;9.10;99.90;;;;;;5047161;28;19976;-83
2021/11/21 11:58:44;;;;;;;;;;;9.10;99.90;;;;;;5047133;28;19996;-82
2021/11/21 12:01:12;;;;;;;;;;;9.10;99.90;;;;;;5047167;28;19925;-82
2021/11/21 12:03:40;;;;;;;;;;;9.20;99.90;;;;;;5045686;28;19988;-82
2021/11/21 12:06:07;;;;;;;;;;;9.30;99.90;;;;;;5042310;28;20064;-82
2021/11/21 12:08:34;;;;;;;;;;;9.20;99.90;;;;;;5041369;28;19925;-82
2021/11/21 12:11:00;;;;;;;;;;;9.20;99.90;;;;;;5041155;28;20424;-81
2021/11/21 12:13:28;;;;;;;;;;;9.20;99.90;;;;;;5041019;28;20395;-83
2021/11/21 12:15:58;;;;;;;;;;;9.20;99.90;;;;;;5046172;28;19925;-81
2021/11/21 12:18:43;;;;;;;;;;;9.20;99.90;;;;;;5046916;28;20379;-83
2021/11/21 12:21:11;;;;;;;;;;;9.10;99.90;;;;;;5047365;28;20354;-83
2021/11/21 12:24:02;;;;;;;;;;;9.20;99.90;;;;;;5047848;28;19925;-82
2021/11/21 12:26:35;;;;;;;;;;;9.10;99.90;;;;;;5056152;28;19948;-81
2021/11/21 12:29:04;;;;;;;;;;;9.10;99.90;;;;;;5057998;28;19933;-83
2021/11/21 12:31:32;;;;;;;;;;;9.10;99.90;;;;;;5049804;28;19948;-83
2021/11/21 12:34:17;;;;;;;;;;;9.10;99.90;;;;;;5049515;28;19925;-83
2021/11/21 12:37:03;;;;;;;;;;;9.20;99.90;;;;;;5057285;28;19925;-84
2021/11/21 12:39:31;;;;;;;;;;;9.10;99.90;;;;;;5054367;28;19948;-82
2021/11/21 12:42:01;;;;;;;;;;;9.10;99.90;;;;;;5048369;28;20441;-82
2021/11/21 12:44:28;;;;;;;;;;;9.10;99.90;;;;;;5047216;28;20387;-83
2021/11/21 12:46:58;;;;;;;;;;;9.20;99.90;;;;;;5049991;28;20012;-83
2021/11/21 12:49:25;;;;;;;;;;;9.10;99.90;;;;;;5046657;28;19933;-81
2021/11/21 12:52:01;;;;;;;;;;;9.10;99.90;;;;;;5043925;28;20291;-83
2021/11/21 12:54:28;;;;;;;;;;;9.20;99.90;;;;;;5043722;28;19960;-82
2021/11/21 12:56:56;;;;;;;;;;;9.10;99.90;;;;;;5043617;28;19963;-84
2021/11/21 12:59:43;;;;;;;;;;;9.10;99.90;;;;;;5046208;28;19988;-83
2021/11/21 13:02:12;;;;;;;;;;;9.10;99.90;;;;;;5046944;28;20414;-82
2021/11/21 13:04:46;;;;;;;;;;;9.00;99.90;;;;;;5054901;28;19925;-82
2021/11/21 13:07:26;;;;;;;;;;;9.10;99.90;;;;;;5058190;28;19948;-82
2021/11/21 13:10:00;;;;;;;;;;;9.10;99.90;;;;;;5058183;28;19916;-82
2021/11/21 13:12:31;;;;;;;;;;;9.00;99.90;;;;;;5046631;28;19965;-83
2021/11/21 13:14:59;;;;;;;;;;;9.00;99.90;;;;;;5044363;28;19979;-83
2021/11/21 13:17:26;;;;;;;;;;;9.00;99.90;;;;;;5044741;28;19933;-82
2021/11/21 13:20:13;;;;;;;;;;;9.10;99.90;;;;;;5051535;28;19936;-83
2021/11/21 13:22:50;;;;;;;;;;;9.10;99.90;;;;;;5050200;28;20391;-80
2021/11/21 13:25:33;;;;;;;;;;;9.10;99.90;;;;;;5049397;28;19944;-83
2021/11/21 13:28:19;;;;;;;;;;;9.10;99.90;;;;;;5049346;28;19925;-82
2021/11/21 13:30:47;;;;;;;;;;;9.10;99.90;;;;;;5064063;23;19993;-84
2021/11/21 13:33:15;;;;;;;;;;;9.10;99.90;;;;;;5051169;28;19965;-84
2021/11/21 13:35:43;;;;;;;;;;;9.10;99.90;;;;;;5050010;28;19980;-85
2021/11/21 13:38:10;;;;;;;;;;;9.10;99.90;;;;;;5048777;28;19948;-84
2021/11/21 13:40:36;;;;;;;;;;;9.10;99.90;;;;;;5048392;28;19929;-86
2021/11/21 13:43:03;;;;;;;;;;;9.10;99.90;;;;;;5047627;28;20027;-84
2021/11/21 13:45:30;;;;;;;;;;;9.10;99.90;;;;;;5048638;28;19925;-84
2021/11/21 13:47:59;;;;;;;;;;;9.10;99.90;;;;;;5050225;28;19925;-85
2021/11/21 13:50:27;;;;;;;;;;;9.10;99.90;;;;;;5049218;28;19925;-85
2021/11/21 13:52:55;;;;;;;;;;;9.10;99.90;;;;;;5049151;28;19987;-85
2021/11/21 13:55:23;;;;;;;;;;;9.00;99.90;;;;;;5047443;28;20375;-84
2021/11/21 13:57:53;;;;;;;;;;;9.10;99.90;;;;;;5047539;28;19975;-84
2021/11/21 14:00:24;;;;;;;;;;;9.10;99.90;;;;;;5047956;28;20283;-84
2021/11/21 14:02:57;;;;;;;;;;;9.10;99.90;;;;;;5048339;28;20379;-84
2021/11/21 14:05:26;;;;;;;;;;;9.20;99.90;;;;;;5048888;28;19925;-84
2021/11/21 14:07:53;;;;;;;;;;;9.10;99.90;;;;;;5049105;28;19983;-84
2021/11/21 14:10:20;;;;;;;;;;;9.20;99.90;;;;;;5049389;28;19933;-84
2021/11/21 14:12:47;;;;;;;;;;;9.30;99.90;;;;;;5048824;28;20332;-84
2021/11/21 14:15:16;;;;;;;;;;;9.20;99.90;;;;;;5049227;28;20350;-84
2021/11/21 14:17:43;;;;;;;;;;;9.20;99.90;;;;;;5048976;28;19964;-84
2021/11/21 14:20:26;;;;;;;;;;;9.20;99.90;;;;;;5048570;28;19925;-84
2021/11/21 14:23:00;;;;;;;;;;;9.20;99.90;;;;;;5047666;28;20055;-84
2021/11/21 14:25:29;;;;;;;;;;;9.20;99.90;;;;;;5048668;28;19925;-84
2021/11/21 14:28:01;;;;;;;;;;;9.00;99.90;;;;;;5048780;28;20387;-84
2021/11/21 14:30:30;;;;;;;;;;;9.20;99.90;;;;;;5048893;28;19988;-85
2021/11/21 14:33:11;;;;;;;;;;;9.20;99.90;;;;;;5049250;28;19925;-84
2021/11/21 14:35:40;;;;;;;;;;;9.20;99.90;;;;;;5049214;28;19925;-86
2021/11/21 14:38:09;;;;;;;;;;;9.20;99.90;;;;;;5051494;28;19913;-85
2021/11/21 14:40:36;;;;;;;;;;;9.20;99.90;;;;;;5050876;28;20291;-85